• Join FlightAware (Why Join?)
  • Login
  • US Flag 
09:22AM EDT


 

Airport Tracker/Info


-or-


 

Live Flight TrackerFlight Track Log ✈ CTL312 ✈ 23-Apr-2013 ✈ KBKL - KHAO

Flight Track Log - Related Links

Times and Time Zones

All times are in EDT time to prevent confusion due to time zone crossing. See the CTL312 flight status page for this flight to view local times or setup timezone preferences in your user account.

Time Position Orientation Groundspeed Altitude Reporting Facility
EDT Latitude Longitude Course Direction KTS MPH feet Rate Location/Type
06:33PM 41.5125 -81.6978 318° Northwest 112 129 800  Level Cleveland Center
06:34PM 41.5292 -81.7175 318° Northwest 154 177 1,200 600 Climbing Cleveland Center
06:35PM 41.5747 -81.7406 339° North 185 213 1,800 360 Climbing Cleveland Center
06:36PM 41.5847 -81.7936 284° West 161 185 1,900  Climbing Cleveland Center
06:37PM 41.5944 -81.8575 282° West 169 194 1,900 120 Level Cleveland Center
06:38PM 41.6000 -81.9158 277° West 161 185 2,200 480 Climbing Cleveland Center
06:39PM 41.5847 -81.9656 248° West 144 166 2,900 660 Climbing Cleveland Center
06:40PM 41.5717 -82.0125 250° West 144 166 3,500 540 Climbing Cleveland Center
06:41PM 41.5503 -82.0481 231° Southwest 141 162 3,900 420 Climbing Cleveland Center
06:42PM 41.5208 -82.0836 222° Southwest 142 163 4,400 480 Climbing Cleveland Center
06:43PM 41.4911 -82.1189 222° Southwest 140 161 4,900 480 Climbing Cleveland Center
06:44PM 41.4636 -82.1514 222° Southwest 136 157 5,400 420 Climbing Cleveland Center
06:45PM 41.4297 -82.1894 220° Southwest 136 157 5,900 240 Climbing Cleveland Center
06:46PM 41.4019 -82.2247 224° Southwest 142 163 6,000  Climbing Cleveland Center
06:48PM 41.3525 -82.2757 218° Southwest  Level FlightAware Approximate
06:55PM 41.1365 -82.4991 221° Southwest  Level FlightAware Approximate
06:56PM 41.1071 -82.5333 221° Southwest  Level FlightAware Approximate
06:57PM 41.0777 -82.5675 221° Southwest  Level FlightAware Approximate
06:58PM 41.0483 -82.6017 221° Southwest  Level FlightAware Approximate
06:59PM 41.0189 -82.6358 221° Southwest  Level FlightAware Approximate
07:00PM 40.9894 -82.6699 221° Southwest  Level FlightAware Approximate
07:01PM 40.9600 -82.7040 221° Southwest  Level FlightAware Approximate
07:02PM 40.9306 -82.7380 221° Southwest  Level FlightAware Approximate
07:03PM 40.9011 -82.7720 221° Southwest  Level FlightAware Approximate
07:04PM 40.8717 -82.8060 221° Southwest  Level FlightAware Approximate
07:05PM 40.8422 -82.8400 221° Southwest  Level FlightAware Approximate
07:06PM 40.8127 -82.8739 221° Southwest  Level FlightAware Approximate
07:07PM 40.7832 -82.9078 221° Southwest  Level FlightAware Approximate
07:07PM 40.7622 -82.9819 221° Southwest 150 173 5,900  Level Indianapolis Center
07:08PM 40.7537 -82.9417 221° Southwest  Level FlightAware Approximate
07:08PM 40.7261 -83.0247 222° Southwest 149 171 5,900  Level Indianapolis Center
07:09PM 40.7242 -82.9755 221° Southwest  Level FlightAware Approximate
07:09PM 40.6944 -83.0600 220° Southwest 149 171 5,900  Level Indianapolis Center
07:10PM 40.6947 -83.0093 221° Southwest  Level FlightAware Approximate
07:10PM 40.6633 -83.0944 220° Southwest 146 168 5,900  Level Indianapolis Center
07:11PM 40.6652 -83.0430 221° Southwest  Level FlightAware Approximate
07:11PM 40.6311 -83.1300 220° Southwest 148 170 5,900  Level Indianapolis Center
07:12PM 40.6356 -83.0768 221° Southwest  Level FlightAware Approximate
07:12PM 40.5964 -83.1689 220° Southwest 150 173 5,900  Level Indianapolis Center
07:13PM 40.5650 -83.2047 221° Southwest 149 171 5,900  Level Indianapolis Center
07:14PM 40.5342 -83.2417 222° Southwest 149 171 5,900  Level Indianapolis Center
07:15PM 40.5022 -83.2781 221° Southwest 150 173 5,900  Level Indianapolis Center
07:16PM 40.4844 -83.3000 223° Southwest 151 174 5,900  Level Indianapolis Center
07:16PM 40.4703 -83.3153 219° Southwest 151 174 5,900  Level Indianapolis Center
07:17PM 40.4525 -83.3372 223° Southwest 151 174 5,900  Level Indianapolis Center
07:17PM 40.4394 -83.3536 224° Southwest 151 174 5,900  Level Indianapolis Center
07:18PM 40.4181 -83.3797 223° Southwest 151 174 5,900  Level Indianapolis Center
07:18PM 40.4083 -83.3908 221° Southwest 149 171 5,900 60 Level Indianapolis Center
07:19PM 40.3883 -83.4144 222° Southwest 149 171 6,000  Climbing Indianapolis Center
07:19PM 40.3719 -83.4333 221° Southwest 150 173 5,900  Descending Indianapolis Center
07:20PM 40.3586 -83.4489 222° Southwest 151 174 6,000  Climbing Indianapolis Center
07:20PM 40.3400 -83.4700 221° Southwest 150 173 5,900  Descending Indianapolis Center
07:21PM 40.3289 -83.4836 223° Southwest 149 171 6,000 60 Climbing Indianapolis Center
07:21PM 40.3097 -83.5069 223° Southwest 149 171 6,000  Level Indianapolis Center
07:22PM 40.2922 -83.5256 219° Southwest 149 171 6,000  Level Indianapolis Center
07:23PM 40.2781 -83.5433 224° Southwest 150 173 6,000  Level Indianapolis Center
07:23PM 40.2647 -83.5606 225° Southwest 148 170 6,000  Level Indianapolis Center
07:24PM 40.2467 -83.5792 218° Southwest 149 171 6,000  Level Indianapolis Center
07:24PM 40.2328 -83.5947 221° Southwest 148 170 6,000  Level Indianapolis Center
07:25PM 40.2156 -83.6139 220° Southwest 147 169 6,000  Level Indianapolis Center
07:25PM 40.2011 -83.6292 219° Southwest 148 170 6,000  Level Indianapolis Center
07:26PM 40.1844 -83.6497 223° Southwest 148 170 6,000  Level Indianapolis Center
07:26PM 40.1714 -83.6636 219° Southwest 145 167 6,000  Level Indianapolis Center
07:27PM 40.1475 -83.6892 219° Southwest 147 169 6,000  Level Indianapolis Center
07:28PM 40.1164 -83.7247 221° Southwest 147 169 6,000  Level Indianapolis Center
07:29PM 40.0836 -83.7578 218° Southwest 147 169 6,000  Level Indianapolis Center
07:30PM 40.0519 -83.7928 220° Southwest 148 170 6,000  Level Indianapolis Center
07:31PM 40.0208 -83.8278 221° Southwest 148 170 6,000 -60 Level Indianapolis Center
07:32PM 39.9864 -83.8664 221° Southwest 145 167 5,900  Descending Indianapolis Center
07:33PM 39.9547 -83.8978 217° Southwest 147 169 6,000  Climbing Indianapolis Center
07:34PM 39.9253 -83.9294 220° Southwest 148 170 6,000  Level Indianapolis Center
07:35PM 39.8894 -83.9694 221° Southwest 146 168 6,000 -60 Level Indianapolis Center
07:36PM 39.8586 -84.0025 219° Southwest 147 169 5,900 -180 Descending Indianapolis Center
07:37PM 39.8197 -84.0464 221° Southwest 151 174 5,700 -480 Descending Indianapolis Center
07:38PM 39.7922 -84.0764 220° Southwest 153 176 5,000 -720 Descending Indianapolis Center
07:39PM 39.7567 -84.1111 217° Southwest 157 181 4,400 -480 Descending Indianapolis Center
07:40PM 39.7128 -84.1544 217° Southwest 160 184 4,000 -240 Descending Indianapolis Center
07:41PM 39.6872 -84.1808 218° Southwest 157 181 4,000  Level Indianapolis Center
07:42PM 39.6564 -84.2139 220° Southwest 150 173 4,000  Level Indianapolis Center
07:43PM 39.6250 -84.2469 219° Southwest 145 167 4,000  Level Indianapolis Center
07:44PM 39.5897 -84.2844 219° Southwest 142 163 4,000  Level Indianapolis Center
07:45PM 39.5581 -84.3164 218° Southwest 142 163 4,000 -300 Level Indianapolis Center
07:46PM 39.5261 -84.3508 220° Southwest 145 167 3,400 -540 Descending Indianapolis Center
07:47PM 39.4925 -84.3872 220° Southwest 151 174 2,900 -360 Descending Indianapolis Center
07:48PM 39.4600 -84.4217 219° Southwest 152 175 2,700 -240 Descending Indianapolis Center
07:51PM 39.3778 -84.4749 229° Southwest  Level FlightAware Approximate
07:58PM 39.3500 -84.5167 229° Southwest  Level FlightAware Approximate